This is the latest recevied weather packets stored in our database for station/object SP3WRO-2. If no packets are shown the sender has not sent any weather packets the latest 10 day(s).
| Time | Temp. | Humidity | Pressure | Rain* | Wind** | Luminosity | Snow |
|---|---|---|---|---|---|---|---|
| 1787602085 | 12.78° C | 97% | 1017.5 hPa | 4.57 mm | - | - | - |
| 1787600284 | 13.33° C | 97% | 1017.7 hPa | 4.57 mm | - | - | - |
| 1787599382 | 13.33° C | 96% | 1017.7 hPa | 4.57 mm | - | - | - |
| 1787598482 | 13.89° C | 96% | 1017.6 hPa | 4.57 mm | - | - | - |
| 1787597574 | 13.89° C | 96% | 1017.7 hPa | 4.57 mm | - | - | - |
| 1787596673 | 14.44° C | 96% | 1017.7 hPa | 4.57 mm | - | - | - |
| 1787595772 | 14.44° C | 95% | 1017.6 hPa | 4.57 mm | - | - | - |
| 1787594871 | 14.44° C | 95% | 1017.5 hPa | 4.57 mm | - | 2 W/m² | - |
| 1787593970 | 15° C | 93% | 1017.3 hPa | 4.57 mm | - | 6 W/m² | - |
| 1787593069 | 15° C | 88% | 1017.4 hPa | 3.81 mm | - | 13 W/m² | - |
| 1787592168 | 17.78° C | 73% | 1017.6 hPa | - | - | 11 W/m² | - |
| 1787591267 | 18.89° C | 69% | 1017.2 hPa | - | - | 45 W/m² | - |
| 1787590366 | 18.89° C | 75% | 1017.1 hPa | - | - | 50 W/m² | - |
| 1787589466 | 19.44° C | 65% | 1017.1 hPa | - | - | 76 W/m² | - |
| 1787588564 | 19.44° C | 70% | 1017.2 hPa | - | - | 53 W/m² | - |
| 1787587664 | 18.89° C | 70% | 1017.3 hPa | - | - | 62 W/m² | - |
| 1787586763 | 20° C | 65% | 1017.4 hPa | - | - | 71 W/m² | - |
| 1787585861 | 19.44° C | 66% | 1017.4 hPa | - | - | 96 W/m² | - |
| 1787584960 | 20° C | 67% | 1017.4 hPa | - | - | 134 W/m² | - |
| 1787584060 | 20.56° C | 64% | 1017.3 hPa | - | - | 281 W/m² | - |
| 1787583159 | 21.11° C | 61% | 1017.3 hPa | - | - | 352 W/m² | - |
| 1787582258 | 21.11° C | 62% | 1017.1 hPa | - | - | 431 W/m² | - |
| 1787581357 | 21.67° C | 59% | 1017.1 hPa | - | - | 456 W/m² | - |
| 1787580456 | 21.67° C | 61% | 1017.2 hPa | - | - | 429 W/m² | - |
| 1787579555 | 21.67° C | 58% | 1017.2 hPa | - | - | 516 W/m² | - |
* Rain latest 24 hours (hover to see other rain measurements)
** Current wind speed in m/s (hover to see current wind gust speed)